createdAt,value
2019-01-14T00:02:23.590Z,99418.30
2019-01-14T00:04:55.492Z,99408.02
2019-01-14T00:07:21.004Z,99404.33
2019-01-14T00:09:48.424Z,99403.57
2019-01-14T00:12:15.765Z,99422.48
2019-01-14T00:14:43.227Z,99431.70
2019-01-14T00:17:10.393Z,99436.67
2019-01-14T00:19:38.506Z,99435.52
2019-01-14T00:22:06.929Z,99431.83
2019-01-14T00:24:34.382Z,99432.31
2019-01-14T00:27:02.147Z,99465.71
2019-01-14T00:29:29.499Z,99459.08
2019-01-14T00:31:56.562Z,99475.31
2019-01-14T00:34:24.505Z,99483.92
2019-01-14T00:36:51.870Z,99486.31
2019-01-14T00:39:20.888Z,99495.26
2019-01-14T00:41:49.392Z,99469.23
2019-01-14T00:44:17.141Z,99508.00
2019-01-14T00:46:44.614Z,99513.67
2019-01-14T00:49:12.371Z,99511.20
2019-01-14T00:51:39.718Z,99539.70
2019-01-14T00:54:06.775Z,99526.64
2019-01-14T00:56:33.838Z,99542.42
2019-01-14T00:59:00.914Z,99548.93
2019-01-14T01:01:28.587Z,99549.16
2019-01-14T01:03:55.955Z,99565.56
2019-01-14T01:06:24.706Z,99563.09
2019-01-14T01:08:53.977Z,99580.66
2019-01-14T01:11:22.516Z,99596.56
2019-01-14T01:13:49.898Z,99609.52
2019-01-14T01:16:17.089Z,99609.99
2019-01-14T01:18:44.471Z,99601.05
2019-01-14T01:21:11.523Z,99620.02
2019-01-14T01:23:38.871Z,99632.86
2019-01-14T01:26:05.930Z,99636.52
2019-01-14T01:28:33.581Z,99625.56
2019-01-14T01:31:01.755Z,99643.59
2019-01-14T01:33:28.826Z,99647.03
2019-01-14T01:35:55.879Z,99653.73
2019-01-14T01:38:22.951Z,99646.44
2019-01-14T01:40:50.033Z,99645.61
2019-01-14T01:43:17.498Z,99652.69
2019-01-14T01:45:44.559Z,99660.70
2019-01-14T01:48:11.635Z,99654.34
2019-01-14T01:50:38.689Z,99682.50
2019-01-14T01:53:05.771Z,99675.09
2019-01-14T01:55:34.278Z,99680.27
2019-01-14T01:58:01.356Z,99678.50
2019-01-14T02:00:28.423Z,99684.52
2019-01-14T02:02:55.501Z,99687.25
2019-01-14T02:05:24.639Z,99684.77
2019-01-14T02:07:52.717Z,99672.61
2019-01-14T02:10:22.015Z,99675.17
2019-01-14T02:12:50.481Z,99679.34
2019-01-14T02:15:18.210Z,99669.06
2019-01-14T02:17:45.986Z,99676.75
2019-01-14T02:20:14.861Z,99681.57
2019-01-14T02:22:42.247Z,99676.50
2019-01-14T02:25:09.994Z,99690.55
2019-01-14T02:27:38.505Z,99690.30
2019-01-14T02:30:08.319Z,99691.70
2019-01-14T02:32:36.367Z,99700.81
2019-01-14T02:35:04.848Z,99692.17
2019-01-14T02:37:32.711Z,99718.39
2019-01-14T02:39:59.781Z,99725.36
2019-01-14T02:42:28.354Z,99718.86
2019-01-14T02:44:56.111Z,99743.87
2019-01-14T02:47:23.583Z,99738.09
2019-01-14T02:49:51.018Z,99778.92
2019-01-14T02:52:18.789Z,99768.77
2019-01-14T02:54:45.849Z,99771.00
2019-01-14T02:57:12.894Z,99767.00
2019-01-14T02:59:39.964Z,99784.30
2019-01-14T03:02:07.009Z,99790.45
2019-01-14T03:04:34.193Z,99791.64
2019-01-14T03:07:01.258Z,99793.84
2019-01-14T03:09:29.432Z,99802.20
2019-01-14T03:11:56.877Z,99813.13
2019-01-14T03:14:24.301Z,99777.69
2019-01-14T03:16:51.346Z,99817.84
2019-01-14T03:19:19.699Z,99805.31
2019-01-14T03:21:46.751Z,99831.94
2019-01-14T03:24:14.799Z,99804.00
2019-01-14T03:26:42.562Z,99840.69
2019-01-14T03:29:10.228Z,99838.98
2019-01-14T03:31:37.584Z,99848.43
2019-01-14T03:34:06.058Z,99850.75
2019-01-14T03:36:33.726Z,99866.39
2019-01-14T03:39:01.111Z,99876.43
2019-01-14T03:41:29.374Z,99861.22
2019-01-14T03:43:57.835Z,99862.10
2019-01-14T03:46:25.185Z,99865.65
2019-01-14T03:48:52.642Z,99878.13
2019-01-14T03:51:19.998Z,99861.91
2019-01-14T03:53:51.387Z,99863.98
2019-01-14T03:56:20.264Z,99875.56
2019-01-14T03:58:47.591Z,99885.92
2019-01-14T04:01:14.672Z,99888.92
2019-01-14T04:03:41.745Z,99888.27
2019-01-14T04:06:09.145Z,99892.97
2019-01-14T04:08:36.187Z,99888.98
2019-01-14T04:11:03.358Z,99890.05
2019-01-14T04:13:31.496Z,99895.05
2019-01-14T04:15:59.174Z,99903.53
2019-01-14T04:18:26.231Z,99900.23
2019-01-14T04:20:53.575Z,99907.53
2019-01-14T04:23:20.624Z,99912.12
2019-01-14T04:25:47.688Z,99913.83
2019-01-14T04:28:14.731Z,99910.53
2019-01-14T04:30:41.796Z,99918.50
2019-01-14T04:33:09.919Z,99910.23
2019-01-14T04:35:36.966Z,99914.88
2019-01-14T04:38:04.184Z,99904.89
2019-01-14T04:40:31.236Z,99918.42
2019-01-14T04:42:58.299Z,99907.56
2019-01-14T04:45:25.357Z,99933.66
2019-01-14T04:47:53.584Z,99929.97
2019-01-14T04:50:21.419Z,99935.22
2019-01-14T04:52:48.566Z,99929.12
2019-01-14T04:55:17.047Z,99936.70
2019-01-14T04:57:44.109Z,99947.88
2019-01-14T05:00:14.315Z,99949.45
2019-01-14T05:02:41.671Z,99950.17
2019-01-14T05:05:09.334Z,99951.08
2019-01-14T05:07:36.793Z,99948.73
2019-01-14T05:10:06.384Z,99951.80
2019-01-14T05:12:33.454Z,99967.78
2019-01-14T05:15:00.502Z,99958.99
2019-01-14T05:17:27.568Z,99972.55
2019-01-14T05:19:56.020Z,99973.73
2019-01-14T05:22:24.100Z,99993.80
2019-01-14T05:24:52.275Z,99989.00
2019-01-14T05:27:19.336Z,99976.64
2019-01-14T05:29:46.443Z,99986.66
2019-01-14T05:32:13.524Z,99992.27
2019-01-14T05:34:40.643Z,100008.73
2019-01-14T05:37:07.685Z,100002.25
2019-01-14T05:39:34.764Z,99996.11
2019-01-14T05:42:01.872Z,100004.63
2019-01-14T05:44:29.318Z,99993.42
2019-01-14T05:46:56.378Z,99998.09
2019-01-14T05:49:23.454Z,100004.63
2019-01-14T05:51:50.821Z,99999.89
2019-01-14T05:54:17.858Z,100001.06
2019-01-14T05:56:46.126Z,100000.96
2019-01-14T05:59:13.169Z,100019.05
2019-01-14T06:01:40.246Z,100018.68
2019-01-14T06:04:07.600Z,100021.28
2019-01-14T06:06:34.676Z,100012.41
2019-01-14T06:09:01.718Z,100024.02
2019-01-14T06:11:29.544Z,100031.78
2019-01-14T06:13:58.124Z,100037.11
2019-01-14T06:16:25.887Z,100015.03
2019-01-14T06:18:53.550Z,100005.91
2019-01-14T06:21:20.958Z,100022.49
2019-01-14T06:23:49.690Z,100043.09
2019-01-14T06:26:17.350Z,100038.70
2019-01-14T06:28:45.015Z,100047.64
2019-01-14T06:31:13.657Z,100054.95
2019-01-14T06:33:41.053Z,100057.48
2019-01-14T06:36:08.437Z,100035.95
2019-01-14T06:38:36.070Z,100071.03
2019-01-14T06:41:03.528Z,100082.71
2019-01-14T06:43:30.879Z,100089.56
2019-01-14T06:45:58.233Z,100096.22
2019-01-14T06:48:26.326Z,100107.52
2019-01-14T06:50:53.398Z,100106.81
2019-01-14T06:53:21.512Z,100108.80
2019-01-14T06:55:56.974Z,100123.89
2019-01-14T06:58:24.532Z,100125.73
2019-01-14T07:00:51.590Z,100132.02
2019-01-14T07:03:19.242Z,100126.93
2019-01-14T07:05:46.291Z,100139.87
2019-01-14T07:08:13.800Z,100136.02
2019-01-14T07:10:42.647Z,100138.58
2019-01-14T07:13:10.093Z,100143.58
2019-01-14T07:15:37.456Z,100142.25
2019-01-14T07:18:04.803Z,100131.48
2019-01-14T07:20:32.458Z,100152.53
2019-01-14T07:22:59.522Z,100146.72
2019-01-14T07:25:26.889Z,100153.53
2019-01-14T07:27:54.522Z,100141.92
2019-01-14T07:30:22.925Z,100147.83
2019-01-14T07:32:52.406Z,100174.42
2019-01-14T07:35:20.375Z,100175.80
2019-01-14T07:37:51.417Z,100183.94
2019-01-14T07:40:18.733Z,100188.64
2019-01-14T07:42:47.577Z,100194.09
2019-01-14T07:45:17.247Z,100197.59
2019-01-14T07:47:44.846Z,100209.70
2019-01-14T07:50:13.499Z,100210.44
2019-01-14T07:52:43.352Z,100206.39
2019-01-14T07:55:10.456Z,100216.27
2019-01-14T07:57:39.590Z,100219.68
2019-01-14T08:00:11.665Z,100222.08
2019-01-14T08:02:38.818Z,100222.09
2019-01-14T08:05:07.676Z,100239.38
2019-01-14T08:07:35.804Z,100230.31
2019-01-14T08:10:03.808Z,100227.83
2019-01-14T08:12:31.062Z,100234.30
2019-01-14T08:14:58.423Z,100239.10
2019-01-14T08:17:26.966Z,100237.25
2019-01-14T08:19:56.209Z,100239.73
2019-01-14T08:22:23.635Z,100264.22
2019-01-14T08:24:51.120Z,100264.96
2019-01-14T08:27:18.511Z,100254.99
2019-01-14T08:29:45.590Z,100264.80
2019-01-14T08:32:12.645Z,100264.06
2019-01-14T08:34:39.712Z,100271.42
2019-01-14T08:37:09.120Z,100267.27
2019-01-14T08:39:36.778Z,100251.85
2019-01-14T08:42:04.551Z,100262.00
2019-01-14T08:44:38.617Z,100259.41
2019-01-14T08:47:06.435Z,100280.13
2019-01-14T08:49:34.181Z,100284.56
2019-01-14T08:52:01.542Z,100291.23
2019-01-14T08:54:28.937Z,100285.69
2019-01-14T08:56:56.355Z,100284.73
2019-01-14T08:59:23.645Z,100285.13
2019-01-14T09:01:50.784Z,100286.23
2019-01-14T09:04:22.370Z,100282.92
2019-01-14T09:06:46.914Z,100281.98
2019-01-14T09:09:14.389Z,100278.67
2019-01-14T09:11:43.365Z,100274.84
2019-01-14T09:14:10.754Z,100297.77
2019-01-14T09:16:39.626Z,100297.12
2019-01-14T09:19:06.682Z,100290.11
2019-01-14T09:21:33.796Z,100300.63
2019-01-14T09:24:00.838Z,100303.70
2019-01-14T09:26:29.123Z,100299.91
2019-01-14T09:28:56.510Z,100302.13
2019-01-14T09:31:24.176Z,100297.45
2019-01-14T09:33:52.594Z,100310.02
2019-01-14T09:36:19.673Z,100299.38
2019-01-14T09:38:46.718Z,100307.77
2019-01-14T09:41:13.799Z,100301.28
2019-01-14T09:43:41.142Z,100301.40
2019-01-14T09:46:08.734Z,100304.16
2019-01-14T09:48:36.115Z,100296.69
2019-01-14T09:51:03.774Z,100326.73
2019-01-14T09:53:30.917Z,100326.00
2019-01-14T09:55:58.995Z,100323.94
2019-01-14T09:58:26.059Z,100323.21
2019-01-14T10:00:53.567Z,100330.77
2019-01-14T10:03:21.190Z,100275.45
2019-01-14T10:05:48.253Z,100312.94
2019-01-14T10:08:17.223Z,100331.23
2019-01-14T10:10:45.703Z,100320.82
2019-01-14T10:13:13.653Z,100321.57
2019-01-14T10:15:41.139Z,100317.97
2019-01-14T10:18:10.092Z,100326.47
2019-01-14T10:20:38.147Z,100332.27
2019-01-14T10:23:05.206Z,100335.80
2019-01-14T10:25:33.748Z,100352.06
2019-01-14T10:28:02.152Z,100343.12
2019-01-14T10:30:29.945Z,100363.15
2019-01-14T10:32:57.366Z,100356.65
2019-01-14T10:35:25.061Z,100363.02
2019-01-14T10:37:53.155Z,100374.01
2019-01-14T10:40:20.527Z,100366.14
2019-01-14T10:42:47.953Z,100378.16
2019-01-14T10:45:18.044Z,100373.91
2019-01-14T10:47:46.545Z,100362.63
2019-01-14T10:50:14.155Z,100384.59
2019-01-14T10:52:43.209Z,100379.61
2019-01-14T10:55:12.525Z,100390.36
2019-01-14T10:57:39.421Z,100375.64
2019-01-14T11:00:11.491Z,100391.08
2019-01-14T11:02:40.394Z,100388.80
2019-01-14T11:05:09.281Z,100385.16
2019-01-14T11:07:38.652Z,100379.16
2019-01-14T11:10:08.520Z,100406.59
2019-01-14T11:12:35.875Z,100398.75
2019-01-14T11:15:08.604Z,100414.04
2019-01-14T11:17:35.860Z,100411.18
2019-01-14T11:20:04.874Z,100407.32
2019-01-14T11:22:32.004Z,100423.67
2019-01-14T11:24:59.050Z,100418.41
2019-01-14T11:27:27.309Z,100419.20
2019-01-14T11:29:56.916Z,100406.61
2019-01-14T11:32:26.103Z,100420.14
2019-01-14T11:34:53.169Z,100419.42
2019-01-14T11:37:21.263Z,100419.79
2019-01-14T11:39:48.354Z,100412.36
2019-01-14T11:42:15.422Z,100416.77
2019-01-14T11:44:42.524Z,100431.00
2019-01-14T11:47:09.574Z,100441.97
2019-01-14T11:49:36.751Z,100442.70
2019-01-14T11:52:03.830Z,100443.58
2019-01-14T11:54:30.894Z,100448.61
2019-01-14T11:56:58.274Z,100445.02
2019-01-14T11:59:25.340Z,100455.14
2019-01-14T12:01:53.259Z,100446.32
2019-01-14T12:04:20.651Z,100454.01
2019-01-14T12:06:48.270Z,100459.39
2019-01-14T12:09:15.783Z,100447.72
2019-01-14T12:11:42.825Z,100462.91
2019-01-14T12:14:11.085Z,100471.22
2019-01-14T12:16:38.162Z,100476.41
2019-01-14T12:19:05.225Z,100480.49
2019-01-14T12:21:32.584Z,100492.14
2019-01-14T12:23:59.735Z,100469.52
2019-01-14T12:26:26.778Z,100493.80
2019-01-14T12:28:53.842Z,100487.86
2019-01-14T12:31:21.285Z,100496.75
2019-01-14T12:33:48.341Z,100490.44
2019-01-14T12:36:15.382Z,100490.66
2019-01-14T12:38:42.748Z,100499.73
2019-01-14T12:41:10.148Z,100507.41
2019-01-14T12:43:37.569Z,100491.23
2019-01-14T12:46:05.164Z,100498.83
2019-01-14T12:48:35.897Z,100502.89
2019-01-14T12:51:03.046Z,100513.05
2019-01-14T12:53:31.944Z,100511.36
2019-01-14T12:55:59.596Z,100510.50
2019-01-14T12:58:27.668Z,100514.07
2019-01-14T13:00:55.331Z,100509.51
2019-01-14T13:03:22.734Z,100519.91
2019-01-14T13:05:51.189Z,100525.97
2019-01-14T13:08:18.385Z,100482.16
2019-01-14T13:10:46.578Z,100532.14
2019-01-14T13:13:13.645Z,100533.27
2019-01-14T13:15:42.325Z,100538.75
2019-01-14T13:18:09.483Z,100553.52
2019-01-14T13:20:36.582Z,100535.87
2019-01-14T13:23:04.304Z,100545.20
2019-01-14T13:25:32.812Z,100556.17
2019-01-14T13:28:00.923Z,100563.70
2019-01-14T13:30:29.972Z,100555.57
2019-01-14T13:32:58.716Z,100570.27
2019-01-14T13:35:27.186Z,100569.85
2019-01-14T13:37:54.252Z,100577.69
2019-01-14T13:40:22.520Z,100583.58
2019-01-14T13:42:50.670Z,100586.64
2019-01-14T13:45:18.754Z,100591.23
2019-01-14T13:47:46.186Z,100584.41
2019-01-14T13:50:15.499Z,100595.04
2019-01-14T13:52:42.937Z,100608.30
2019-01-14T13:55:11.174Z,100599.19
2019-01-14T13:57:38.551Z,100613.24
2019-01-14T14:00:12.078Z,100607.41
2019-01-14T14:02:40.287Z,100604.55
2019-01-14T14:05:07.475Z,100600.48
2019-01-14T14:07:34.634Z,100597.53
2019-01-14T14:10:02.319Z,100616.43
2019-01-14T14:12:35.841Z,100614.73
2019-01-14T14:15:04.537Z,100611.98
2019-01-14T14:17:32.296Z,100626.84
2019-01-14T14:19:59.850Z,100621.63
2019-01-14T14:22:27.223Z,100627.70
2019-01-14T14:24:54.451Z,100633.30
2019-01-14T14:27:21.916Z,100629.74
2019-01-14T14:29:50.084Z,100642.95
2019-01-14T14:32:17.166Z,100631.70
2019-01-14T14:34:44.598Z,100642.94
2019-01-14T14:37:11.945Z,100653.08
2019-01-14T14:39:39.013Z,100651.78
2019-01-14T14:42:07.914Z,100651.77
2019-01-14T14:44:34.969Z,100662.77
2019-01-14T14:47:03.511Z,100655.72
2019-01-14T14:49:30.559Z,100664.55
2019-01-14T14:51:57.651Z,100666.77
2019-01-14T14:54:25.115Z,100672.38
2019-01-14T14:56:52.186Z,100661.39
2019-01-14T14:59:20.055Z,100669.34
2019-01-14T15:01:47.497Z,100680.37
2019-01-14T15:04:14.534Z,100679.56
2019-01-14T15:06:41.854Z,100681.33
2019-01-14T15:09:10.025Z,100687.19
2019-01-14T15:11:38.910Z,100675.83
2019-01-14T15:14:07.791Z,100695.47
2019-01-14T15:16:35.830Z,100697.45
2019-01-14T15:19:03.522Z,100698.80
2019-01-14T15:21:32.721Z,100703.65
2019-01-14T15:24:00.698Z,100700.75
2019-01-14T15:26:27.790Z,100698.50
2019-01-14T15:28:55.234Z,100701.95
2019-01-14T15:31:25.505Z,100707.19
2019-01-14T15:33:52.607Z,100707.36
2019-01-14T15:36:20.726Z,100710.66
2019-01-14T15:38:49.582Z,100708.70
2019-01-14T15:41:16.663Z,100714.59
2019-01-14T15:43:46.979Z,100719.52
2019-01-14T15:46:14.064Z,100728.72
2019-01-14T15:48:41.137Z,100730.44
2019-01-14T15:51:08.214Z,100732.30
2019-01-14T15:53:35.267Z,100743.80
2019-01-14T15:56:02.481Z,100739.27
2019-01-14T15:58:29.530Z,100739.06
2019-01-14T16:00:56.776Z,100746.08
2019-01-14T16:03:23.905Z,100761.33
2019-01-14T16:05:55.478Z,100760.59
2019-01-14T16:08:23.535Z,100756.39
2019-01-14T16:10:51.177Z,100754.95
2019-01-14T16:13:18.699Z,100739.52
2019-01-14T16:15:46.959Z,100763.51
2019-01-14T16:18:16.254Z,100748.43
2019-01-14T16:20:43.878Z,100765.41
2019-01-14T16:23:11.335Z,100775.45
2019-01-14T16:25:39.459Z,100772.43
2019-01-14T16:28:08.931Z,100776.11
2019-01-14T16:30:35.974Z,100779.37
2019-01-14T16:33:04.151Z,100786.34
2019-01-14T16:35:33.147Z,100787.41
2019-01-14T16:38:00.879Z,100775.48
2019-01-14T16:40:28.556Z,100783.77
2019-01-14T16:42:57.748Z,100781.14
2019-01-14T16:45:26.557Z,100793.22
2019-01-14T16:47:55.720Z,100792.15
2019-01-14T16:50:22.805Z,100777.16
2019-01-14T16:52:51.348Z,100788.21
2019-01-14T16:55:39.385Z,100792.94
2019-01-14T16:58:06.850Z,100792.57
2019-01-14T17:00:34.510Z,100790.92
2019-01-14T17:03:02.073Z,100796.45
2019-01-14T17:05:29.132Z,100810.98
2019-01-14T17:07:57.102Z,100804.09
2019-01-14T17:10:25.247Z,100800.71
2019-01-14T17:12:53.656Z,100807.47
2019-01-14T17:15:25.286Z,100808.91
2019-01-14T17:17:52.329Z,100820.10
2019-01-14T17:20:19.416Z,100822.05
2019-01-14T17:22:46.771Z,100818.05
2019-01-14T17:25:13.917Z,100825.33
2019-01-14T17:27:43.109Z,100835.47
2019-01-14T17:30:13.290Z,100841.17
2019-01-14T17:32:41.025Z,100840.78
2019-01-14T17:35:09.194Z,100848.13
2019-01-14T17:37:37.012Z,100864.21
2019-01-14T17:40:06.827Z,100859.13
2019-01-14T17:42:36.759Z,100869.72
2019-01-14T17:45:05.233Z,100868.71
2019-01-14T17:47:34.074Z,100869.25
2019-01-14T17:50:02.115Z,100871.66
2019-01-14T17:52:30.759Z,100875.42
2019-01-14T17:54:58.250Z,100881.83
2019-01-14T17:57:27.467Z,100887.66
2019-01-14T17:59:54.872Z,100889.92
2019-01-14T18:02:23.683Z,100894.13
2019-01-14T18:04:51.058Z,100900.01
2019-01-14T18:07:18.887Z,100894.30
2019-01-14T18:09:48.078Z,100895.92
2019-01-14T18:12:16.377Z,100890.82
2019-01-14T18:14:45.252Z,100893.79
2019-01-14T18:17:13.346Z,100902.46
2019-01-14T18:19:41.205Z,100906.02
2019-01-14T18:22:08.260Z,100889.98
2019-01-14T18:24:35.718Z,100908.83
2019-01-14T18:27:03.555Z,100906.09
2019-01-14T18:29:31.019Z,100912.54
2019-01-14T18:31:58.190Z,100913.85
2019-01-14T18:34:25.309Z,100908.48
2019-01-14T18:36:56.823Z,100906.05
2019-01-14T18:39:24.217Z,100905.89
2019-01-14T18:41:51.469Z,100918.21
2019-01-14T18:44:18.669Z,100906.18
2019-01-14T18:46:47.122Z,100913.02
2019-01-14T18:49:15.481Z,100908.98
2019-01-14T18:51:42.986Z,100910.72
2019-01-14T18:54:10.055Z,100915.23
2019-01-14T18:56:37.151Z,100919.00
2019-01-14T18:59:04.647Z,100910.56
2019-01-14T19:01:32.116Z,100927.45
2019-01-14T19:04:00.232Z,100911.78
2019-01-14T19:06:27.509Z,100916.76
2019-01-14T19:08:54.886Z,100915.00
2019-01-14T19:11:22.718Z,100914.42
2019-01-14T19:13:50.899Z,100912.30
2019-01-14T19:16:19.021Z,100917.85
2019-01-14T19:18:46.709Z,100926.23
2019-01-14T19:21:13.767Z,100928.38
2019-01-14T19:23:42.195Z,100935.52
2019-01-14T19:26:09.240Z,100920.70
2019-01-14T19:28:36.332Z,100933.60
2019-01-14T19:31:04.404Z,100948.55
2019-01-14T19:33:31.449Z,100944.48
2019-01-14T19:35:58.577Z,100954.63
2019-01-14T19:38:25.648Z,100958.86
2019-01-14T19:40:52.704Z,100965.16
2019-01-14T19:43:21.182Z,100971.27
2019-01-14T19:45:49.937Z,100973.37
2019-01-14T19:48:18.759Z,100980.28
2019-01-14T19:50:45.878Z,100982.59
2019-01-14T19:53:12.938Z,100984.78
2019-01-14T19:55:40.332Z,100987.14
2019-01-14T19:58:07.430Z,100993.29
2019-01-14T20:00:34.807Z,100999.50
2019-01-14T20:03:03.122Z,100997.54
2019-01-14T20:05:32.578Z,100998.53
2019-01-14T20:08:00.039Z,101001.19
2019-01-14T20:10:27.220Z,100997.52
2019-01-14T20:12:55.348Z,100999.96
2019-01-14T20:15:25.792Z,101005.86
2019-01-14T20:17:54.258Z,101017.63
2019-01-14T20:20:21.452Z,101009.28
2019-01-14T20:22:48.757Z,101018.75
2019-01-14T20:25:15.854Z,101012.68
2019-01-14T20:27:43.403Z,101014.41
2019-01-14T20:30:14.622Z,101018.13
2019-01-14T20:32:41.727Z,101017.44
2019-01-14T20:35:09.843Z,101018.55
2019-01-14T20:37:36.998Z,101013.55
2019-01-14T20:40:04.911Z,101022.16
2019-01-14T20:42:36.604Z,101025.59
2019-01-14T20:45:05.103Z,101026.27
2019-01-14T20:47:33.675Z,101024.22
2019-01-14T20:50:04.381Z,101021.55
2019-01-14T20:52:31.559Z,101023.22
2019-01-14T20:54:59.233Z,101023.63
2019-01-14T20:57:26.319Z,101013.33
2019-01-14T20:59:53.808Z,101019.58
2019-01-14T21:02:23.011Z,101021.42
2019-01-14T21:04:51.513Z,101013.69
2019-01-14T21:07:18.476Z,101017.75
2019-01-14T21:09:46.506Z,101021.17
2019-01-14T21:12:13.565Z,101016.61
2019-01-14T21:14:43.372Z,101020.41
2019-01-14T21:17:10.828Z,101010.52
2019-01-14T21:19:37.794Z,101008.98
2019-01-14T21:22:05.242Z,101012.45
2019-01-14T21:24:32.805Z,101012.09
2019-01-14T21:27:00.816Z,101006.44
2019-01-14T21:29:27.742Z,101023.00
2019-01-14T21:31:58.244Z,101029.18
2019-01-14T21:34:25.273Z,101030.78
2019-01-14T21:36:53.329Z,101033.44
2019-01-14T21:39:22.979Z,101032.43
2019-01-14T21:41:49.987Z,101035.89
2019-01-14T21:44:18.374Z,101039.70
2019-01-14T21:46:46.797Z,101040.24
2019-01-14T21:49:13.783Z,101044.05
2019-01-14T21:51:41.811Z,101049.81
2019-01-14T21:54:09.792Z,101042.72
2019-01-14T21:56:37.108Z,101064.09
2019-01-14T21:59:04.100Z,101069.93
2019-01-14T22:01:31.090Z,101073.45
2019-01-14T22:03:58.356Z,101076.02
2019-01-14T22:06:26.390Z,101085.44
2019-01-14T22:08:56.674Z,101085.75
2019-01-14T22:11:23.696Z,101084.43
2019-01-14T22:13:52.874Z,101082.67
2019-01-14T22:16:19.764Z,101088.28
2019-01-14T22:18:46.764Z,101091.34
2019-01-14T22:21:14.050Z,101093.68
2019-01-14T22:23:41.005Z,101083.70
2019-01-14T22:26:10.036Z,101096.05
2019-01-14T22:28:37.279Z,101086.61
2019-01-14T22:31:04.578Z,101089.47
2019-01-14T22:33:32.575Z,101081.00
2019-01-14T22:36:01.470Z,101083.27
2019-01-14T22:38:28.407Z,101094.08
2019-01-14T22:40:55.490Z,101095.41
2019-01-14T22:43:22.557Z,101102.36
2019-01-14T22:45:49.645Z,101100.74
2019-01-14T22:48:16.758Z,101104.70
2019-01-14T22:50:43.860Z,101107.16
2019-01-14T22:53:11.331Z,101105.61
2019-01-14T22:55:39.523Z,101103.31
2019-01-14T22:58:06.764Z,101114.34
2019-01-14T23:01:07.688Z,101119.17
2019-01-14T23:03:36.280Z,101114.15
2019-01-14T23:06:03.838Z,101112.07
2019-01-14T23:08:30.927Z,101111.17
2019-01-14T23:10:58.070Z,101112.51
2019-01-14T23:13:25.317Z,101103.39
2019-01-14T23:15:52.472Z,101094.72
2019-01-14T23:18:19.589Z,101108.03
2019-01-14T23:20:46.768Z,101101.70
2019-01-14T23:23:15.933Z,101105.07
2019-01-14T23:25:43.129Z,101103.28
2019-01-14T23:28:10.334Z,101100.72
2019-01-14T23:30:38.533Z,101095.70
2019-01-14T23:33:06.001Z,101104.92
2019-01-14T23:35:33.186Z,101099.53
2019-01-14T23:38:02.290Z,101090.88
2019-01-14T23:40:32.306Z,101098.15
2019-01-14T23:42:59.377Z,101089.88
2019-01-14T23:45:26.488Z,101091.00
2019-01-14T23:47:53.555Z,101099.99
2019-01-14T23:50:22.007Z,101096.85
2019-01-14T23:52:50.256Z,101089.30
2019-01-14T23:55:17.636Z,101099.59
2019-01-14T23:57:46.425Z,101097.70
